createdAt,value
2022-12-16T00:00:17.320Z,83.87
2022-12-16T00:02:45.687Z,83.77
2022-12-16T00:05:13.971Z,83.66
2022-12-16T00:07:42.290Z,83.88
2022-12-16T00:10:11.991Z,83.69
2022-12-16T00:12:40.257Z,83.85
2022-12-16T00:15:08.996Z,83.98
2022-12-16T00:17:37.656Z,83.38
2022-12-16T00:20:06.971Z,83.35
2022-12-16T00:22:35.215Z,83.58
2022-12-16T00:25:03.603Z,83.57
2022-12-16T00:27:33.349Z,83.49
2022-12-16T00:30:02.306Z,83.65
2022-12-16T00:32:30.671Z,83.87
2022-12-16T00:34:59.081Z,83.60
2022-12-16T00:37:28.381Z,83.60
2022-12-16T00:39:56.699Z,83.50
2022-12-16T00:42:25.064Z,83.50
2022-12-16T00:44:54.718Z,83.37
2022-12-16T00:47:23.053Z,83.30
2022-12-16T00:49:51.252Z,83.33
2022-12-16T00:52:19.474Z,83.96
2022-12-16T00:54:47.739Z,83.50
2022-12-16T00:57:16.055Z,83.78
2022-12-16T00:59:44.313Z,83.25
2022-12-16T01:02:14.051Z,83.34
2022-12-16T01:04:42.373Z,82.98
2022-12-16T01:07:11.217Z,83.19
2022-12-16T01:09:39.427Z,82.96
2022-12-16T01:12:08.308Z,83.11
2022-12-16T01:14:36.763Z,83.00
2022-12-16T01:17:05.120Z,83.23
2022-12-16T01:19:34.761Z,83.01
2022-12-16T01:22:03.063Z,82.74
2022-12-16T01:24:31.310Z,82.78
2022-12-16T01:26:59.629Z,83.26
2022-12-16T01:29:27.838Z,83.23
2022-12-16T01:31:56.226Z,83.05
2022-12-16T01:34:25.143Z,83.26
2022-12-16T01:36:55.949Z,83.47
2022-12-16T01:39:25.201Z,83.52
2022-12-16T01:41:53.406Z,83.77
2022-12-16T01:44:24.559Z,83.80
2022-12-16T01:46:57.350Z,84.14
2022-12-16T01:49:29.164Z,83.62
2022-12-16T01:52:03.359Z,83.54
2022-12-16T01:57:27.367Z,83.81
2022-12-16T01:59:57.490Z,83.89
2022-12-16T02:02:27.379Z,84.24
2022-12-16T02:05:14.272Z,83.95
2022-12-16T02:07:44.448Z,84.06
2022-12-16T02:16:06.399Z,83.70
2022-12-16T02:18:46.718Z,83.76
2022-12-16T02:21:28.132Z,83.82
2022-12-16T02:24:41.437Z,83.57
2022-12-16T02:30:51.721Z,83.33
2022-12-16T02:33:42.468Z,83.37
2022-12-16T02:36:19.237Z,83.47
2022-12-16T02:38:56.563Z,83.13
2022-12-16T02:41:31.127Z,83.24
2022-12-16T02:46:56.194Z,83.75
2022-12-16T02:49:50.690Z,83.14
2022-12-16T02:52:22.952Z,83.42
2022-12-16T02:54:55.068Z,83.27
2022-12-16T02:57:43.752Z,83.24
2022-12-16T03:00:14.620Z,83.80
2022-12-16T03:02:50.926Z,83.71
2022-12-16T03:05:25.256Z,83.45
2022-12-16T03:07:57.125Z,83.82
2022-12-16T03:10:30.612Z,83.24
2022-12-16T03:13:02.906Z,83.42
2022-12-16T03:15:35.296Z,83.14
2022-12-16T03:20:57.191Z,82.91
2022-12-16T03:23:32.787Z,82.98
2022-12-16T03:26:07.590Z,83.05
2022-12-16T03:28:44.815Z,82.96
2022-12-16T03:31:24.952Z,83.47
2022-12-16T03:36:51.256Z,83.60
2022-12-16T03:39:23.265Z,83.87
2022-12-16T03:41:55.190Z,83.97
2022-12-16T03:44:25.660Z,83.26
2022-12-16T03:46:54.061Z,83.47
2022-12-16T03:49:24.402Z,82.97
2022-12-16T03:54:40.241Z,83.71
2022-12-16T03:57:14.773Z,83.19
2022-12-16T03:59:43.985Z,83.34
2022-12-16T04:02:12.339Z,82.81
2022-12-16T04:04:42.182Z,82.89
2022-12-16T04:07:22.366Z,82.50
2022-12-16T04:09:53.072Z,82.55
2022-12-16T04:12:39.338Z,82.70
2022-12-16T04:15:26.233Z,82.40
2022-12-16T04:18:12.092Z,82.45
2022-12-16T04:21:03.195Z,82.34
2022-12-16T04:23:52.364Z,82.67
2022-12-16T04:26:27.008Z,82.37
2022-12-16T04:28:55.286Z,82.25
2022-12-16T04:31:23.526Z,81.93
2022-12-16T04:34:09.471Z,82.17
2022-12-16T04:36:56.408Z,82.41
2022-12-16T04:39:41.874Z,82.16
2022-12-16T04:45:31.436Z,82.14
2022-12-16T04:48:17.334Z,82.15
2022-12-16T04:51:06.376Z,81.98
2022-12-16T04:53:53.461Z,81.39
2022-12-16T04:56:38.993Z,81.67
2022-12-16T05:02:36.313Z,81.38
2022-12-16T05:05:22.293Z,81.22
2022-12-16T05:08:07.835Z,81.43
2022-12-16T05:10:54.944Z,80.63
2022-12-16T05:13:40.771Z,80.87
2022-12-16T05:16:26.754Z,81.12
2022-12-16T05:19:12.539Z,81.20
2022-12-16T05:21:57.981Z,80.47
2022-12-16T05:24:46.222Z,80.31
2022-12-16T05:27:35.672Z,80.27
2022-12-16T05:30:21.322Z,81.02
2022-12-16T05:33:07.931Z,80.38
2022-12-16T05:35:54.163Z,81.08
2022-12-16T05:38:39.682Z,81.68
2022-12-16T05:41:25.094Z,81.21
2022-12-16T05:44:12.318Z,80.63
2022-12-16T05:46:57.871Z,81.24
2022-12-16T05:49:43.927Z,80.97
2022-12-16T05:52:29.562Z,80.49
2022-12-16T05:55:15.417Z,80.67
2022-12-16T05:58:01.340Z,79.95
2022-12-16T06:00:48.459Z,79.95
2022-12-16T06:03:34.617Z,79.71
2022-12-16T06:06:20.490Z,80.00
2022-12-16T06:09:06.199Z,80.51
2022-12-16T06:11:51.892Z,79.97
2022-12-16T06:14:37.187Z,79.05
2022-12-16T06:17:24.249Z,79.06
2022-12-16T06:20:09.765Z,79.46
2022-12-16T06:22:55.454Z,78.78
2022-12-16T06:25:41.002Z,78.65
2022-12-16T06:28:26.849Z,79.42
2022-12-16T06:31:12.606Z,79.87
2022-12-16T06:33:59.729Z,79.78
2022-12-16T06:36:45.094Z,79.10
2022-12-16T06:39:30.919Z,78.89
2022-12-16T06:42:16.562Z,78.95
2022-12-16T06:45:02.091Z,79.23
2022-12-16T06:47:47.674Z,79.46
2022-12-16T06:50:34.975Z,79.36
2022-12-16T06:53:20.491Z,79.13
2022-12-16T06:56:06.517Z,79.38
2022-12-16T06:58:52.355Z,79.66
2022-12-16T07:01:38.216Z,79.48
2022-12-16T07:04:24.334Z,79.08
2022-12-16T07:07:11.135Z,79.14
2022-12-16T07:09:57.250Z,79.80
2022-12-16T07:12:43.007Z,79.87
2022-12-16T07:15:29.414Z,80.34
2022-12-16T07:18:15.049Z,79.79
2022-12-16T07:21:15.153Z,80.16
2022-12-16T07:24:02.124Z,80.15
2022-12-16T07:26:47.855Z,80.03
2022-12-16T07:29:33.433Z,80.32
2022-12-16T07:32:19.100Z,79.86
2022-12-16T07:35:04.895Z,79.27
2022-12-16T07:37:50.580Z,79.42
2022-12-16T07:40:37.599Z,78.68
2022-12-16T07:43:23.413Z,79.80
2022-12-16T07:46:08.012Z,79.44
2022-12-16T07:48:57.005Z,80.25
2022-12-16T07:51:42.379Z,79.85
2022-12-16T07:54:27.935Z,80.19
2022-12-16T07:57:15.140Z,79.59
2022-12-16T07:59:57.330Z,80.00
2022-12-16T08:02:43.064Z,79.68
2022-12-16T08:05:29.307Z,79.36
2022-12-16T08:08:15.193Z,79.07
2022-12-16T08:11:00.980Z,78.85
2022-12-16T08:13:49.565Z,79.49
2022-12-16T08:16:35.110Z,79.69
2022-12-16T08:19:29.354Z,79.29
2022-12-16T08:22:17.502Z,79.30
2022-12-16T08:25:03.308Z,79.43
2022-12-16T08:28:04.798Z,80.06
2022-12-16T08:30:51.948Z,79.88
2022-12-16T08:33:38.505Z,80.04
2022-12-16T08:36:25.226Z,80.00
2022-12-16T08:39:10.924Z,79.73
2022-12-16T08:41:56.524Z,79.48
2022-12-16T08:44:38.770Z,78.91
2022-12-16T08:47:25.528Z,79.17
2022-12-16T08:50:11.198Z,79.27
2022-12-16T08:52:56.994Z,78.87
2022-12-16T08:55:43.021Z,78.79
2022-12-16T08:58:31.127Z,77.83
2022-12-16T09:01:17.090Z,76.86
2022-12-16T09:04:04.429Z,77.81
2022-12-16T09:06:50.366Z,77.17
2022-12-16T09:09:35.743Z,77.66
2022-12-16T09:12:22.772Z,76.35
2022-12-16T09:15:08.505Z,76.94
2022-12-16T09:17:54.248Z,76.96
2022-12-16T09:20:41.860Z,76.31
2022-12-16T09:23:27.758Z,76.01
2022-12-16T09:26:13.533Z,74.33
2022-12-16T09:28:59.372Z,74.87
2022-12-16T09:31:59.770Z,75.03
2022-12-16T09:34:45.467Z,74.89
2022-12-16T09:37:32.876Z,74.79
2022-12-16T09:40:18.738Z,75.10
2022-12-16T09:43:09.637Z,75.24
2022-12-16T09:46:04.604Z,75.85
2022-12-16T09:49:01.341Z,75.51
2022-12-16T09:51:47.772Z,75.08
2022-12-16T09:54:49.731Z,75.87
2022-12-16T09:57:37.216Z,75.15
2022-12-16T10:00:26.107Z,73.54
2022-12-16T10:03:14.479Z,73.38
2022-12-16T10:06:09.986Z,73.25
2022-12-16T10:09:03.260Z,73.12
2022-12-16T10:12:05.930Z,72.49
2022-12-16T10:14:58.171Z,71.86
2022-12-16T10:17:44.841Z,71.60
2022-12-16T10:20:39.316Z,71.38
2022-12-16T10:23:37.036Z,71.55
2022-12-16T10:26:29.818Z,70.23
2022-12-16T10:29:23.899Z,69.90
2022-12-16T10:32:09.743Z,69.49
2022-12-16T10:35:06.018Z,69.08
2022-12-16T10:37:55.534Z,69.21
2022-12-16T10:40:45.785Z,69.18
2022-12-16T10:43:36.843Z,69.36
2022-12-16T10:46:40.827Z,68.19
2022-12-16T10:49:31.231Z,67.43
2022-12-16T10:52:17.051Z,66.75
2022-12-16T10:55:10.117Z,66.70
2022-12-16T10:58:07.194Z,66.49
2022-12-16T11:00:59.773Z,66.00
2022-12-16T11:03:49.480Z,67.07
2022-12-16T11:06:39.313Z,65.99
2022-12-16T11:09:41.848Z,66.44
2022-12-16T11:12:44.005Z,66.57
2022-12-16T11:15:43.770Z,66.43
2022-12-16T11:18:31.908Z,67.16
2022-12-16T11:21:33.041Z,67.07
2022-12-16T11:24:25.887Z,66.25
2022-12-16T11:27:12.591Z,66.32
2022-12-16T11:30:12.552Z,66.20
2022-12-16T11:33:02.084Z,66.88
2022-12-16T11:35:53.350Z,66.81
2022-12-16T11:38:44.738Z,66.47
2022-12-16T11:41:41.493Z,66.24
2022-12-16T11:44:36.803Z,66.31
2022-12-16T11:47:27.657Z,66.09
2022-12-16T11:50:15.937Z,65.88
2022-12-16T11:53:08.653Z,65.94
2022-12-16T11:56:12.321Z,65.49
2022-12-16T11:59:05.043Z,65.72
2022-12-16T12:01:57.452Z,64.99
2022-12-16T12:04:43.235Z,65.83
2022-12-16T12:07:44.930Z,65.34
2022-12-16T12:10:49.412Z,65.36
2022-12-16T12:13:51.526Z,65.84
2022-12-16T12:16:50.021Z,64.66
2022-12-16T12:19:44.032Z,65.66
2022-12-16T12:22:34.094Z,65.71
2022-12-16T12:25:27.612Z,65.61
2022-12-16T12:28:20.622Z,65.27
2022-12-16T12:31:13.168Z,66.14
2022-12-16T12:34:22.132Z,65.71
2022-12-16T12:37:18.283Z,65.82
2022-12-16T12:40:05.765Z,65.93
2022-12-16T12:43:03.368Z,65.96
2022-12-16T12:46:06.927Z,65.84
2022-12-16T12:49:01.028Z,65.14
2022-12-16T12:51:53.803Z,65.43
2022-12-16T12:54:47.192Z,65.56
2022-12-16T12:57:36.800Z,65.80
2022-12-16T13:00:25.697Z,65.05
2022-12-16T13:03:20.661Z,65.64
2022-12-16T13:06:09.437Z,65.71
2022-12-16T13:09:04.944Z,65.39
2022-12-16T13:11:50.695Z,65.41
2022-12-16T13:15:11.672Z,65.54
2022-12-16T13:18:36.904Z,66.07
2022-12-16T13:22:02.771Z,66.02
2022-12-16T13:25:09.823Z,66.45
2022-12-16T13:28:09.076Z,66.16
2022-12-16T13:30:55.556Z,65.99
2022-12-16T13:34:05.324Z,65.85
2022-12-16T13:36:54.363Z,66.08
2022-12-16T13:39:43.828Z,65.96
2022-12-16T13:43:06.248Z,65.69
2022-12-16T13:45:55.193Z,64.79
2022-12-16T13:48:57.222Z,64.34
2022-12-16T13:52:25.451Z,64.05
2022-12-16T13:55:30.245Z,64.01
2022-12-16T13:58:23.583Z,64.51
2022-12-16T14:01:24.161Z,64.31
2022-12-16T14:04:11.457Z,64.80
2022-12-16T14:06:58.665Z,64.76
2022-12-16T14:09:52.059Z,64.17
2022-12-16T14:12:59.477Z,64.62
2022-12-16T14:15:50.927Z,64.22
2022-12-16T14:18:47.481Z,64.00
2022-12-16T14:21:43.845Z,64.26
2022-12-16T14:24:36.782Z,64.63
2022-12-16T14:27:30.898Z,64.78
2022-12-16T14:30:18.089Z,65.20
2022-12-16T14:33:04.158Z,65.59
2022-12-16T14:35:50.466Z,65.61
2022-12-16T14:38:42.701Z,65.73
2022-12-16T14:41:33.620Z,66.06
2022-12-16T14:44:20.132Z,66.27
2022-12-16T14:47:15.637Z,66.11
2022-12-16T14:50:08.814Z,66.44
2022-12-16T14:52:54.615Z,66.48
2022-12-16T14:55:47.756Z,66.71
2022-12-16T14:58:34.544Z,66.83
2022-12-16T15:01:23.990Z,67.06
2022-12-16T15:04:12.392Z,65.92
2022-12-16T15:07:01.672Z,66.07
2022-12-16T15:09:51.018Z,66.16
2022-12-16T15:12:39.740Z,65.46
2022-12-16T15:15:32.553Z,65.47
2022-12-16T15:18:20.310Z,65.46
2022-12-16T15:21:25.143Z,64.68
2022-12-16T15:24:11.125Z,64.82
2022-12-16T15:26:56.925Z,64.74
2022-12-16T15:29:47.215Z,64.72
2022-12-16T15:32:50.535Z,64.75
2022-12-16T15:35:44.700Z,65.53
2022-12-16T15:38:42.350Z,64.86
2022-12-16T15:41:40.067Z,65.17
2022-12-16T15:44:34.223Z,65.61
2022-12-16T15:47:20.238Z,66.39
2022-12-16T15:50:07.130Z,66.15
2022-12-16T15:52:55.048Z,66.02
2022-12-16T15:55:48.950Z,66.09
2022-12-16T15:58:40.605Z,65.88
2022-12-16T16:01:27.531Z,66.25
2022-12-16T16:04:14.966Z,65.76
2022-12-16T16:07:04.219Z,65.44
2022-12-16T16:09:51.063Z,66.21
2022-12-16T16:12:40.036Z,66.03
2022-12-16T16:15:28.717Z,65.48
2022-12-16T16:18:30.685Z,65.14
2022-12-16T16:21:16.318Z,65.80
2022-12-16T16:24:02.198Z,66.50
2022-12-16T16:27:02.431Z,66.08
2022-12-16T16:30:01.177Z,66.54
2022-12-16T16:32:47.095Z,66.15
2022-12-16T16:35:33.256Z,66.20
2022-12-16T16:38:18.930Z,65.92
2022-12-16T16:41:06.115Z,66.39
2022-12-16T16:43:52.048Z,66.44
2022-12-16T16:46:51.469Z,66.15
2022-12-16T16:49:42.392Z,66.20
2022-12-16T16:52:30.901Z,65.96
2022-12-16T16:55:17.059Z,66.60
2022-12-16T16:58:02.989Z,66.56
2022-12-16T17:00:49.571Z,66.93
2022-12-16T17:03:37.675Z,66.74
2022-12-16T17:06:23.997Z,67.26
2022-12-16T17:09:09.708Z,65.88
2022-12-16T17:11:57.165Z,65.89
2022-12-16T17:14:42.918Z,66.25
2022-12-16T17:17:29.374Z,66.34
2022-12-16T17:20:24.844Z,65.97
2022-12-16T17:23:10.583Z,65.77
2022-12-16T17:25:56.308Z,66.11
2022-12-16T17:28:42.283Z,67.51
2022-12-16T17:31:29.414Z,67.75
2022-12-16T17:34:15.126Z,67.83
2022-12-16T17:37:02.382Z,68.28
2022-12-16T17:39:48.315Z,69.30
2022-12-16T17:42:48.735Z,68.44
2022-12-16T17:45:34.807Z,68.62
2022-12-16T17:48:20.497Z,69.45
2022-12-16T17:51:06.228Z,68.39
2022-12-16T17:54:00.139Z,68.03
2022-12-16T17:56:46.872Z,67.63
2022-12-16T17:59:32.660Z,67.34
2022-12-16T18:02:18.710Z,66.75
2022-12-16T18:05:04.509Z,66.63
2022-12-16T18:07:50.949Z,67.68
2022-12-16T18:10:37.935Z,66.76
2022-12-16T18:13:26.246Z,67.03
2022-12-16T18:16:12.603Z,67.37
2022-12-16T18:18:58.571Z,67.15
2022-12-16T18:21:44.438Z,66.96
2022-12-16T18:24:31.460Z,66.75
2022-12-16T18:27:19.677Z,67.03
2022-12-16T18:30:05.441Z,66.58
2022-12-16T18:33:02.492Z,66.85
2022-12-16T18:35:47.976Z,66.92
2022-12-16T18:38:33.497Z,66.20
2022-12-16T18:41:23.046Z,67.01
2022-12-16T18:44:10.581Z,66.31
2022-12-16T18:46:56.994Z,66.33
2022-12-16T18:49:42.899Z,66.60
2022-12-16T18:52:28.440Z,66.43
2022-12-16T18:55:14.323Z,66.52
2022-12-16T18:58:00.266Z,66.44
2022-12-16T19:00:47.336Z,66.20
2022-12-16T19:03:33.454Z,66.16
2022-12-16T19:06:19.025Z,65.92
2022-12-16T19:09:04.896Z,65.46
2022-12-16T19:11:50.589Z,65.74
2022-12-16T19:14:36.677Z,65.54
2022-12-16T19:17:24.141Z,65.18
2022-12-16T19:20:10.131Z,65.18
2022-12-16T19:22:56.158Z,64.56
2022-12-16T19:25:41.760Z,64.64
2022-12-16T19:28:31.707Z,64.57
2022-12-16T19:31:17.815Z,64.84
2022-12-16T19:34:04.965Z,64.96
2022-12-16T19:36:50.934Z,63.55
2022-12-16T19:39:34.194Z,63.64
2022-12-16T19:42:19.927Z,62.89
2022-12-16T19:45:05.617Z,62.52
2022-12-16T19:47:53.749Z,62.39
2022-12-16T19:50:40.895Z,62.07
2022-12-16T19:53:26.873Z,61.95
2022-12-16T19:56:16.314Z,61.89
2022-12-16T19:59:02.271Z,61.81
2022-12-16T20:01:48.276Z,61.75
2022-12-16T20:04:34.349Z,62.04
2022-12-16T20:10:27.790Z,61.83
2022-12-16T20:13:18.545Z,61.48
2022-12-16T20:16:09.105Z,61.66
2022-12-16T20:18:55.035Z,61.13
2022-12-16T20:21:42.285Z,61.73
2022-12-16T20:24:30.258Z,61.46
2022-12-16T20:27:15.762Z,61.35
2022-12-16T20:30:01.279Z,61.74
2022-12-16T20:32:47.430Z,61.71
2022-12-16T20:35:33.924Z,61.57
2022-12-16T20:38:19.800Z,61.67
2022-12-16T20:41:14.824Z,61.17
2022-12-16T20:44:00.646Z,61.49
2022-12-16T20:46:47.009Z,61.57
2022-12-16T20:49:32.845Z,61.24
2022-12-16T20:52:18.858Z,61.45
2022-12-16T20:55:04.766Z,61.21
2022-12-16T20:57:51.682Z,61.92
2022-12-16T21:00:37.680Z,61.38
2022-12-16T21:03:25.681Z,61.17
2022-12-16T21:06:11.396Z,61.57
2022-12-16T21:08:57.524Z,61.81
2022-12-16T21:11:43.394Z,61.30
2022-12-16T21:14:30.307Z,61.52
2022-12-16T21:17:16.360Z,61.87
2022-12-16T21:20:01.737Z,62.12
2022-12-16T21:22:47.202Z,61.68
2022-12-16T21:25:33.001Z,61.64
2022-12-16T21:28:18.936Z,62.16
2022-12-16T21:31:05.933Z,58.80
2022-12-16T21:33:51.932Z,60.18
2022-12-16T21:36:37.789Z,60.88
2022-12-16T21:39:23.733Z,61.51
2022-12-16T21:42:09.320Z,61.54
2022-12-16T21:44:54.872Z,61.43
2022-12-16T21:47:43.460Z,61.52
2022-12-16T21:50:30.303Z,61.10
2022-12-16T21:53:15.412Z,61.08
2022-12-16T21:56:01.305Z,61.22
2022-12-16T21:58:47.091Z,60.84
2022-12-16T22:01:32.903Z,61.17
2022-12-16T22:04:28.694Z,61.09
2022-12-16T22:07:14.729Z,61.78
2022-12-16T22:10:00.622Z,61.86
2022-12-16T22:12:46.123Z,61.39
2022-12-16T22:15:31.882Z,61.56
2022-12-16T22:18:18.614Z,60.85
2022-12-16T22:21:17.300Z,60.94
2022-12-16T22:24:02.997Z,60.27
2022-12-16T22:26:48.781Z,60.95
2022-12-16T22:29:34.848Z,60.62
2022-12-16T22:32:20.502Z,60.57
2022-12-16T22:35:06.233Z,60.16
2022-12-16T22:36:20.687Z,61.64
2022-12-16T22:37:52.992Z,60.95
2022-12-16T22:40:41.821Z,61.07
2022-12-16T22:43:27.840Z,60.14
2022-12-16T22:46:17.833Z,60.66
2022-12-16T22:49:04.599Z,59.62
2022-12-16T22:51:50.413Z,60.25
2022-12-16T22:54:37.579Z,60.87
2022-12-16T22:57:22.922Z,61.12
2022-12-16T23:00:09.160Z,61.07
2022-12-16T23:02:55.549Z,60.26
2022-12-16T23:05:42.451Z,60.59
2022-12-16T23:08:28.616Z,60.99
2022-12-16T23:11:16.733Z,60.97
2022-12-16T23:14:03.726Z,60.54
2022-12-16T23:16:49.362Z,60.55
2022-12-16T23:19:35.056Z,61.42
2022-12-16T23:22:20.706Z,61.10
2022-12-16T23:25:06.286Z,60.34
2022-12-16T23:27:53.162Z,61.27
2022-12-16T23:30:39.101Z,60.93
2022-12-16T23:33:25.007Z,61.79
2022-12-16T23:36:10.677Z,61.68
2022-12-16T23:38:56.762Z,62.57
2022-12-16T23:41:42.451Z,62.82
2022-12-16T23:44:29.477Z,64.05
2022-12-16T23:47:15.234Z,64.03
2022-12-16T23:50:00.635Z,64.20
2022-12-16T23:52:46.188Z,63.65
2022-12-16T23:55:32.083Z,63.62
2022-12-16T23:58:18.372Z,63.85
